Time;durP1;ratioP1;P1;durP2;ratioP2;P2;SDS_P1;SDS_P2;PMS_P1;PMS_P2;Temp;Humidity;BMP_temperature;BMP_pressure;BME280_temperature;BME280_humidity;BME280_pressure;Samples;Min_cycle;Max_cycle;Signal;HPM_P1;HPM_P2
2022/03/19 00:00:33;;;;;;;33.60;16.70;;;20.50;56.50;;;;;;4958547;28;88695;-71
2022/03/19 00:02:59;;;;;;;27.40;15.77;;;20.50;56.10;;;;;;4958747;28;87922;-71
2022/03/19 00:05:24;;;;;;;30.63;15.45;;;20.50;56.00;;;;;;4959018;28;87043;-71
2022/03/19 00:07:50;;;;;;;28.88;15.15;;;20.50;56.00;;;;;;4964069;28;87675;-71
2022/03/19 00:10:17;;;;;;;28.83;15.02;;;20.50;56.00;;;;;;4962228;28;87979;-71
2022/03/19 00:12:42;;;;;;;29.95;16.00;;;20.50;56.00;;;;;;4955956;28;90217;-71
2022/03/19 00:15:10;;;;;;;30.60;15.60;;;20.50;55.90;;;;;;4960369;28;87793;-71
2022/03/19 00:17:36;;;;;;;31.02;16.00;;;20.50;56.10;;;;;;4958552;28;87963;-71
2022/03/19 00:20:03;;;;;;;28.50;14.85;;;20.40;55.90;;;;;;4962267;28;89143;-71
2022/03/19 00:22:29;;;;;;;30.90;14.85;;;20.40;55.80;;;;;;4956517;28;91579;-71
2022/03/19 00:24:54;;;;;;;28.80;15.15;;;20.40;55.90;;;;;;4959929;28;87461;-71
2022/03/19 00:27:20;;;;;;;30.15;16.83;;;20.40;55.70;;;;;;4961785;28;87195;-71
2022/03/19 00:29:46;;;;;;;29.58;15.27;;;20.40;55.90;;;;;;4959010;28;88272;-72
2022/03/19 00:32:11;;;;;;;25.45;14.55;;;20.40;55.60;;;;;;4945099;28;91568;-72
2022/03/19 00:34:37;;;;;;;28.42;15.30;;;20.40;55.50;;;;;;4959614;28;87779;-71
2022/03/19 00:37:03;;;;;;;26.50;14.77;;;20.40;55.70;;;;;;4963621;28;86654;-71
2022/03/19 00:39:29;;;;;;;27.00;14.55;;;20.40;55.70;;;;;;4958476;28;88316;-71
2022/03/19 00:41:54;;;;;;;26.02;14.13;;;20.40;55.60;;;;;;4959596;28;87784;-71
2022/03/19 00:44:21;;;;;;;28.35;15.18;;;20.40;55.50;;;;;;4958147;28;88688;-71
2022/03/19 00:46:48;;;;;;;27.33;14.45;;;20.40;55.70;;;;;;4958961;28;87676;-71
2022/03/19 00:49:13;;;;;;;26.67;14.40;;;20.40;55.60;;;;;;4960426;28;91673;-71
2022/03/19 00:51:39;;;;;;;30.52;14.45;;;20.40;55.60;;;;;;4963036;28;88902;-71
2022/03/19 00:54:06;;;;;;;27.52;13.73;;;20.40;55.60;;;;;;4938743;28;87446;-71
2022/03/19 00:56:31;;;;;;;24.45;13.55;;;20.30;55.60;;;;;;4956648;28;90186;-71
2022/03/19 00:58:57;;;;;;;26.60;14.25;;;20.30;55.50;;;;;;4963938;28;88526;-71
2022/03/19 01:01:23;;;;;;;26.38;13.35;;;20.30;55.40;;;;;;4961716;28;86895;-71
2022/03/19 01:03:48;;;;;;;26.85;14.00;;;20.30;55.40;;;;;;4960434;28;86863;-71
2022/03/19 01:06:14;;;;;;;25.75;14.38;;;20.30;55.60;;;;;;4959922;28;89211;-71
2022/03/19 01:08:40;;;;;;;28.33;13.40;;;20.30;55.40;;;;;;4959014;28;88872;-71
2022/03/19 01:11:06;;;;;;;27.77;13.90;;;20.30;55.30;;;;;;4961912;28;88709;-71
2022/03/19 01:13:31;;;;;;;25.23;13.13;;;20.30;55.40;;;;;;4961249;28;87621;-71
2022/03/19 01:15:57;;;;;;;26.70;13.30;;;20.30;55.30;;;;;;4962117;28;87367;-71
2022/03/19 01:18:23;;;;;;;25.38;13.48;;;20.30;55.20;;;;;;4960908;28;87531;-71
2022/03/19 01:20:49;;;;;;;27.15;13.77;;;20.30;55.20;;;;;;4963660;28;88854;-71
2022/03/19 01:23:14;;;;;;;26.58;13.85;;;20.30;55.20;;;;;;4958714;28;86976;-72
2022/03/19 01:25:40;;;;;;;23.23;12.85;;;20.20;55.20;;;;;;4957453;28;86994;-71
2022/03/19 01:28:06;;;;;;;21.33;11.88;;;20.20;55.00;;;;;;4960679;28;87994;-71
2022/03/19 01:30:32;;;;;;;24.58;12.50;;;20.20;55.10;;;;;;4962670;28;88429;-71
2022/03/19 01:32:58;;;;;;;24.27;12.68;;;20.20;54.90;;;;;;4960253;28;88569;-71
2022/03/19 01:35:23;;;;;;;23.67;12.93;;;20.20;55.00;;;;;;4959355;28;87469;-70
2022/03/19 01:37:49;;;;;;;23.45;13.38;;;20.20;55.10;;;;;;4959239;28;88104;-70
2022/03/19 01:40:17;;;;;;;24.20;12.55;;;20.20;55.10;;;;;;4960520;28;87492;-70
2022/03/19 01:42:46;;;;;;;24.15;12.88;;;20.20;55.00;;;;;;4957903;28;87784;-70
2022/03/19 01:45:19;;;;;;;20.95;12.43;;;20.20;55.10;;;;;;4961253;28;87591;-70
2022/03/19 01:47:47;;;;;;;22.40;12.77;;;20.20;54.90;;;;;;4960288;28;87504;-70
2022/03/19 01:50:13;;;;;;;24.70;13.02;;;20.20;54.90;;;;;;4957181;28;88158;-70
2022/03/19 01:52:40;;;;;;;19.60;11.75;;;20.20;54.90;;;;;;4959636;28;87591;-70
2022/03/19 01:55:07;;;;;;;20.80;11.20;;;20.20;55.50;;;;;;4960619;28;88628;-70
2022/03/19 01:57:37;;;;;;;21.02;11.52;;;20.20;54.90;;;;;;4956742;28;88575;-71
2022/03/19 02:00:07;;;;;;;21.83;12.57;;;20.20;54.70;;;;;;4957866;28;92530;-71
2022/03/19 02:02:33;;;;;;;21.42;11.68;;;20.20;54.70;;;;;;4958921;28;87703;-70
2022/03/19 02:05:03;;;;;;;21.48;12.32;;;20.20;54.60;;;;;;4960752;28;87647;-71
2022/03/19 02:07:29;;;;;;;21.30;11.98;;;20.10;54.70;;;;;;4957552;28;91208;-70
2022/03/19 02:09:58;;;;;;;21.35;12.00;;;20.10;54.70;;;;;;4961254;28;87189;-70
2022/03/19 02:12:24;;;;;;;20.90;11.80;;;20.10;54.70;;;;;;4940008;28;87425;-70
2022/03/19 02:14:50;;;;;;;20.90;11.48;;;20.10;54.70;;;;;;4959678;28;87426;-70
2022/03/19 02:17:16;;;;;;;20.05;11.07;;;20.10;54.60;;;;;;4958643;28;89135;-70
2022/03/19 02:19:53;;;;;;;18.23;10.80;;;20.10;54.50;;;;;;4957382;28;88317;-71
2022/03/19 02:22:26;;;;;;;20.27;11.10;;;20.10;54.40;;;;;;4938890;28;88863;-70
2022/03/19 02:27:40;;;;;;;20.42;11.65;;;20.10;54.40;;;;;;4958719;28;87819;-70
2022/03/19 02:30:10;;;;;;;20.77;11.00;;;20.10;54.50;;;;;;4957317;28;87867;-70
2022/03/19 02:32:38;;;;;;;20.73;11.27;;;20.10;54.60;;;;;;4961260;28;87883;-71
2022/03/19 02:35:04;;;;;;;18.27;10.55;;;20.10;54.70;;;;;;4942437;28;90074;-70
2022/03/19 02:37:41;;;;;;;19.42;10.95;;;20.10;54.60;;;;;;4939751;28;90308;-71
2022/03/19 02:40:09;;;;;;;17.95;10.25;;;20.10;54.50;;;;;;4942777;28;91241;-71
2022/03/19 02:42:34;;;;;;;18.23;10.73;;;20.10;54.40;;;;;;4956852;28;87500;-71
2022/03/19 02:45:00;;;;;;;18.60;10.68;;;20.00;54.40;;;;;;4958018;28;87953;-71
2022/03/19 02:47:26;;;;;;;16.92;10.68;;;20.00;54.60;;;;;;4955496;28;89018;-70
2022/03/19 02:49:51;;;;;;;19.58;10.20;;;20.00;54.60;;;;;;4958575;28;88756;-70
2022/03/19 02:52:17;;;;;;;19.83;11.15;;;20.00;54.50;;;;;;4957062;28;87715;-71
2022/03/19 02:54:42;;;;;;;19.88;10.93;;;20.00;54.60;;;;;;4957177;28;87541;-70
2022/03/19 02:57:08;;;;;;;20.13;10.52;;;20.00;54.50;;;;;;4961457;28;88100;-71
2022/03/19 02:59:34;;;;;;;20.08;11.13;;;20.00;54.50;;;;;;4941919;28;88896;-71
2022/03/19 03:02:05;;;;;;;18.92;10.15;;;20.00;54.50;;;;;;4960571;28;87660;-71
2022/03/19 03:04:31;;;;;;;19.65;10.98;;;20.00;54.60;;;;;;4973458;28;88684;-71
2022/03/19 03:07:01;;;;;;;18.15;9.43;;;20.00;54.50;;;;;;4958068;28;88512;-70
2022/03/19 03:09:29;;;;;;;16.45;9.40;;;20.00;54.50;;;;;;4957877;28;88005;-71
2022/03/19 03:11:55;;;;;;;17.15;9.52;;;20.00;54.40;;;;;;4961051;28;88317;-71
2022/03/19 03:14:23;;;;;;;17.15;9.38;;;20.00;54.50;;;;;;4963933;28;87486;-70
2022/03/19 03:16:51;;;;;;;18.90;9.55;;;20.00;54.30;;;;;;4957032;28;88165;-71
2022/03/19 03:19:20;;;;;;;17.08;9.75;;;20.00;54.30;;;;;;4961592;28;87968;-71
2022/03/19 03:21:47;;;;;;;18.02;9.88;;;20.00;54.40;;;;;;4960636;28;87521;-71
2022/03/19 03:24:13;;;;;;;16.10;9.45;;;20.00;54.30;;;;;;4963727;28;87447;-72
2022/03/19 03:26:40;;;;;;;18.23;10.10;;;20.00;54.40;;;;;;4961067;28;88928;-71
2022/03/19 03:29:06;;;;;;;15.70;9.10;;;20.00;54.30;;;;;;4959321;28;86929;-71
2022/03/19 03:31:33;;;;;;;15.85;9.48;;;19.90;54.30;;;;;;4959261;28;87671;-71
2022/03/19 03:34:00;;;;;;;17.05;9.15;;;19.90;54.40;;;;;;4960135;28;87878;-71
2022/03/19 03:36:25;;;;;;;17.55;8.80;;;19.90;54.40;;;;;;4960083;28;88943;-71
2022/03/19 03:38:51;;;;;;;16.80;9.52;;;19.90;54.30;;;;;;4957336;28;89292;-71
2022/03/19 03:41:17;;;;;;;18.38;10.02;;;19.90;54.40;;;;;;4958441;28;87971;-70
2022/03/19 03:43:43;;;;;;;17.27;9.40;;;19.90;54.40;;;;;;4961534;28;87702;-70
2022/03/19 03:46:09;;;;;;;16.20;9.15;;;19.90;54.30;;;;;;4961566;28;88037;-70
2022/03/19 03:48:36;;;;;;;15.95;9.57;;;19.90;54.30;;;;;;4960721;28;90103;-70
2022/03/19 03:51:03;;;;;;;13.55;8.63;;;19.90;54.20;;;;;;4961665;28;87254;-70
2022/03/19 03:53:30;;;;;;;17.13;8.63;;;19.90;54.30;;;;;;4962633;28;87085;-71
2022/03/19 03:55:56;;;;;;;15.60;9.20;;;19.90;54.30;;;;;;4980314;28;91363;-71
2022/03/19 03:58:23;;;;;;;17.20;9.48;;;19.90;54.30;;;;;;4961921;28;87968;-71
2022/03/19 04:00:51;;;;;;;16.83;8.68;;;19.90;54.30;;;;;;4963224;28;87880;-71
2022/03/19 04:03:17;;;;;;;12.63;8.15;;;19.90;54.10;;;;;;4962739;28;87498;-70
2022/03/19 04:05:42;;;;;;;13.40;8.65;;;19.90;54.20;;;;;;4957861;28;88215;-71
2022/03/19 04:08:08;;;;;;;15.05;9.73;;;19.90;54.20;;;;;;4960631;28;88745;-70
2022/03/19 04:10:36;;;;;;;16.05;8.40;;;19.90;54.00;;;;;;4959464;28;88192;-71
2022/03/19 04:13:02;;;;;;;14.93;9.00;;;19.80;54.10;;;;;;4963091;28;87648;-71
2022/03/19 04:15:27;;;;;;;16.30;8.60;;;19.80;54.20;;;;;;4961980;28;87704;-71
2022/03/19 04:17:53;;;;;;;15.10;8.55;;;19.80;54.20;;;;;;4964444;28;90202;-70
2022/03/19 04:20:21;;;;;;;15.02;8.57;;;19.80;54.20;;;;;;4962436;28;87978;-72
2022/03/19 04:22:47;;;;;;;16.48;8.82;;;19.80;54.10;;;;;;4959416;28;87279;-71
2022/03/19 04:25:20;;;;;;;12.50;7.35;;;19.80;54.00;;;;;;4961061;28;92554;-71
2022/03/19 04:27:47;;;;;;;13.82;8.27;;;19.80;54.10;;;;;;4962044;28;89399;-71
2022/03/19 04:30:15;;;;;;;14.50;7.85;;;19.80;54.00;;;;;;4964202;28;87925;-71
2022/03/19 04:32:45;;;;;;;12.15;7.13;;;19.80;54.10;;;;;;4963317;28;87254;-71
2022/03/19 04:38:02;;;;;;;13.00;7.97;;;19.80;54.20;;;;;;4963980;28;87922;-71
2022/03/19 04:40:28;;;;;;;14.98;8.18;;;19.80;54.30;;;;;;4962109;28;86999;-71
2022/03/19 04:42:54;;;;;;;15.23;8.25;;;19.80;54.20;;;;;;4964745;28;86924;-71
2022/03/19 04:45:20;;;;;;;13.82;8.15;;;19.80;54.20;;;;;;4962183;28;88787;-71
2022/03/19 04:47:46;;;;;;;13.55;7.68;;;19.80;54.10;;;;;;4961167;28;90996;-70
2022/03/19 04:50:11;;;;;;;13.85;7.85;;;19.70;54.00;;;;;;4961477;28;89075;-70
2022/03/19 04:52:38;;;;;;;14.10;7.95;;;19.70;54.10;;;;;;4959449;28;89642;-70
2022/03/19 04:55:07;;;;;;;13.60;8.18;;;19.70;54.10;;;;;;4958539;28;89490;-70
2022/03/19 04:57:32;;;;;;;12.15;7.38;;;19.70;54.10;;;;;;4975451;28;92196;-70
2022/03/19 04:59:58;;;;;;;15.07;8.48;;;19.70;54.00;;;;;;4962010;28;87592;-70
2022/03/19 05:02:24;;;;;;;12.30;6.93;;;19.70;54.00;;;;;;4947041;28;90299;-70
2022/03/19 05:04:54;;;;;;;13.20;8.05;;;19.70;54.00;;;;;;4961334;28;87970;-70
2022/03/19 05:07:20;;;;;;;12.57;7.05;;;19.70;54.20;;;;;;4963641;28;87381;-70
2022/03/19 05:12:33;;;;;;;10.73;6.40;;;19.70;54.20;;;;;;4960131;28;87204;-70
2022/03/19 05:14:59;;;;;;;13.30;7.70;;;19.70;54.10;;;;;;4960581;28;89202;-70
2022/03/19 05:17:25;;;;;;;12.65;7.28;;;19.70;54.00;;;;;;4960694;28;88700;-70
2022/03/19 05:19:52;;;;;;;13.02;7.55;;;19.70;53.90;;;;;;4961715;28;87505;-70
2022/03/19 05:22:17;;;;;;;13.23;7.43;;;19.70;53.90;;;;;;4959007;28;87661;-70
2022/03/19 05:24:43;;;;;;;12.20;7.00;;;19.70;53.90;;;;;;4964892;28;87397;-71
2022/03/19 05:27:09;;;;;;;12.88;7.15;;;19.70;54.00;;;;;;4957888;28;87756;-71
2022/03/19 05:29:35;;;;;;;12.38;7.43;;;19.70;54.00;;;;;;4962341;28;87997;-71
2022/03/19 05:32:00;;;;;;;12.10;6.85;;;19.70;53.90;;;;;;4958765;28;87173;-71
2022/03/19 05:34:29;;;;;;;11.63;6.97;;;19.60;54.10;;;;;;4959916;28;88053;-70
2022/03/19 05:36:55;;;;;;;12.97;7.27;;;19.70;54.10;;;;;;4960298;28;88495;-71
2022/03/19 05:39:21;;;;;;;14.27;7.32;;;19.70;54.20;;;;;;4962151;28;88584;-71
2022/03/19 05:41:47;;;;;;;13.45;7.07;;;19.70;54.10;;;;;;4959856;28;87254;-71
2022/03/19 05:44:13;;;;;;;12.05;6.38;;;19.60;54.00;;;;;;4960490;28;88132;-70
2022/03/19 05:46:39;;;;;;;12.65;7.50;;;19.60;54.10;;;;;;4957934;28;89623;-70
2022/03/19 05:49:05;;;;;;;10.38;6.30;;;19.60;54.00;;;;;;4961636;28;87665;-70
2022/03/19 05:51:30;;;;;;;11.52;6.95;;;19.60;54.00;;;;;;4960087;28;87481;-71
2022/03/19 05:53:56;;;;;;;10.68;7.07;;;19.60;54.70;;;;;;4962608;28;87808;-71
2022/03/19 05:56:24;;;;;;;11.27;7.00;;;19.60;54.00;;;;;;4957862;28;87278;-71
2022/03/19 05:58:50;;;;;;;10.23;6.10;;;19.60;53.90;;;;;;4959717;28;87665;-71
2022/03/19 06:01:16;;;;;;;11.10;6.80;;;19.60;53.90;;;;;;4978497;28;90238;-71
2022/03/19 06:03:42;;;;;;;10.13;6.15;;;19.60;54.00;;;;;;4942503;28;92222;-71
2022/03/19 06:06:10;;;;;;;10.75;7.13;;;19.50;54.00;;;;;;4957118;28;90931;-70
2022/03/19 06:08:35;;;;;;;11.93;6.72;;;19.60;54.00;;;;;;4962311;28;86905;-70
2022/03/19 06:11:01;;;;;;;11.50;7.40;;;19.60;54.10;;;;;;4960628;28;88289;-71
2022/03/19 06:13:27;;;;;;;9.95;6.13;;;19.60;54.00;;;;;;4963240;28;88004;-70
2022/03/19 06:15:53;;;;;;;10.90;6.78;;;19.60;54.10;;;;;;4960572;28;87566;-71
2022/03/19 06:18:18;;;;;;;8.73;5.93;;;19.60;54.00;;;;;;4956010;28;87634;-71
2022/03/19 06:20:44;;;;;;;9.18;5.80;;;19.60;54.00;;;;;;4957931;28;86906;-72
2022/03/19 06:23:09;;;;;;;10.88;6.40;;;19.60;54.10;;;;;;4961526;28;88171;-71
2022/03/19 06:25:37;;;;;;;10.65;6.45;;;19.60;54.10;;;;;;4955739;28;90681;-71
2022/03/19 06:28:03;;;;;;;9.93;5.90;;;19.60;54.00;;;;;;4958160;28;88491;-71
2022/03/19 06:30:31;;;;;;;10.30;5.93;;;19.60;53.90;;;;;;4960162;28;87151;-71
2022/03/19 06:32:58;;;;;;;9.85;6.00;;;19.70;53.70;;;;;;4962308;28;87979;-71
2022/03/19 06:38:09;;;;;;;10.82;5.53;;;19.70;52.40;;;;;;4961534;28;87131;-73
2022/03/19 06:40:36;;;;;;;11.90;6.28;;;19.70;53.50;;;;;;4960113;28;87062;-70
2022/03/19 06:43:01;;;;;;;37.50;27.77;;;19.70;53.50;;;;;;4959435;28;91341;-71
2022/03/19 06:45:27;;;;;;;26.25;19.10;;;19.70;54.00;;;;;;4959881;28;88520;-71
2022/03/19 06:47:52;;;;;;;28.10;19.58;;;19.70;53.90;;;;;;4960926;28;87852;-70
2022/03/19 06:50:18;;;;;;;30.73;25.05;;;19.80;54.10;;;;;;4958916;28;88033;-71
2022/03/19 06:52:44;;;;;;;23.85;19.00;;;19.80;53.50;;;;;;4937839;28;92001;-71
2022/03/19 06:55:09;;;;;;;26.08;19.73;;;19.80;53.80;;;;;;4961614;28;88157;-71
2022/03/19 06:57:37;;;;;;;23.70;18.27;;;19.80;53.30;;;;;;4960878;28;87538;-71
2022/03/19 07:00:07;;;;;;;23.92;17.30;;;19.90;53.30;;;;;;4958485;28;87870;-71
2022/03/19 07:02:32;;;;;;;24.48;19.33;;;19.90;53.00;;;;;;4956719;28;89569;-71
2022/03/19 07:04:58;;;;;;;24.25;19.42;;;19.90;52.30;;;;;;4953971;28;89881;-71
2022/03/19 07:07:24;;;;;;;28.05;19.80;;;19.90;52.60;;;;;;4959385;28;87645;-71
2022/03/19 07:09:51;;;;;;;25.08;19.38;;;19.90;52.60;;;;;;4960074;28;86927;-71
2022/03/19 07:12:19;;;;;;;24.75;18.90;;;19.90;52.40;;;;;;4959237;28;88011;-71
2022/03/19 07:14:45;;;;;;;22.73;18.30;;;19.90;52.20;;;;;;4954407;28;87697;-71
2022/03/19 07:17:11;;;;;;;22.90;18.40;;;19.90;52.10;;;;;;4942505;28;87904;-70
2022/03/19 07:19:36;;;;;;;26.60;18.27;;;19.90;52.10;;;;;;4963683;28;87708;-71
2022/03/19 07:22:02;;;;;;;21.58;17.77;;;19.90;52.10;;;;;;4964702;28;88006;-71
2022/03/19 07:24:28;;;;;;;22.00;17.95;;;19.90;52.20;;;;;;4947782;28;91548;-71
2022/03/19 07:26:53;;;;;;;22.85;17.75;;;19.90;52.00;;;;;;4965472;28;87783;-70
2022/03/19 07:29:20;;;;;;;23.45;17.38;;;20.00;52.10;;;;;;4964813;28;87857;-69
2022/03/19 07:31:51;;;;;;;23.25;17.45;;;19.90;52.30;;;;;;4959801;28;88014;-70
2022/03/19 07:34:17;;;;;;;19.65;16.48;;;19.90;51.90;;;;;;4959459;28;87903;-70
2022/03/19 07:36:44;;;;;;;19.75;16.15;;;20.00;52.20;;;;;;4942053;28;87381;-70
2022/03/19 07:39:11;;;;;;;22.42;17.08;;;20.00;52.60;;;;;;4960270;28;87886;-72
2022/03/19 07:41:46;;;;;;;19.88;16.23;;;20.00;52.80;;;;;;4947025;28;91376;-73
2022/03/19 07:44:12;;;;;;;20.75;15.55;;;20.00;53.00;;;;;;4960250;28;88899;-70
2022/03/19 07:46:41;;;;;;;26.67;14.70;;;20.10;52.10;;;;;;4961003;28;88047;-70
2022/03/19 07:49:07;;;;;;;24.98;13.48;;;20.20;51.60;;;;;;4960080;28;89583;-70
2022/03/19 07:51:33;;;;;;;23.25;15.00;;;20.20;50.50;;;;;;4963936;28;89861;-70
2022/03/19 07:53:58;;;;;;;24.55;14.68;;;20.20;51.70;;;;;;4958019;28;88040;-70
2022/03/19 07:56:24;;;;;;;21.20;14.10;;;20.20;52.50;;;;;;4960569;28;87891;-70
2022/03/19 07:58:50;;;;;;;24.13;13.68;;;20.30;52.30;;;;;;4944514;28;90612;-70
2022/03/19 08:01:20;;;;;;;24.25;13.27;;;20.30;52.40;;;;;;4960424;28;88116;-70
2022/03/19 08:03:46;;;;;;;18.65;12.23;;;20.30;52.70;;;;;;4961459;28;87930;-69
2022/03/19 08:06:15;;;;;;;20.13;12.95;;;20.30;52.70;;;;;;4960146;28;88546;-70
2022/03/19 08:08:40;;;;;;;20.48;12.40;;;20.30;53.00;;;;;;4960620;28;89815;-71
2022/03/19 08:11:07;;;;;;;19.05;12.75;;;20.30;53.20;;;;;;4957008;28;92218;-71
2022/03/19 08:13:32;;;;;;;17.67;12.73;;;20.30;53.50;;;;;;4962122;28;88112;-70
2022/03/19 08:15:58;;;;;;;16.27;11.90;;;20.40;54.20;;;;;;4958878;28;87550;-70
2022/03/19 08:18:24;;;;;;;18.13;12.02;;;20.40;54.00;;;;;;4958895;28;88382;-70
2022/03/19 08:20:50;;;;;;;19.80;11.38;;;20.40;54.10;;;;;;4956804;28;88128;-72
2022/03/19 08:23:15;;;;;;;13.20;10.50;;;20.40;54.30;;;;;;4956076;28;90426;-71
2022/03/19 08:25:42;;;;;;;15.70;10.48;;;20.40;54.30;;;;;;4958617;28;87743;-73
2022/03/19 08:28:08;;;;;;;18.40;11.38;;;20.40;54.10;;;;;;4955502;28;87506;-71
2022/03/19 08:30:36;;;;;;;17.20;10.70;;;20.50;54.30;;;;;;4955053;28;92064;-70
2022/03/19 08:33:05;;;;;;;18.73;11.57;;;20.40;54.30;;;;;;4961530;28;88530;-71
2022/03/19 08:35:30;;;;;;;16.85;11.13;;;20.50;54.40;;;;;;4961395;28;87833;-70
2022/03/19 08:40:40;;;;;;;22.08;9.30;;;20.50;54.10;;;;;;4954748;28;87150;-72
2022/03/19 08:43:06;;;;;;;16.30;9.68;;;20.60;52.50;;;;;;4958541;28;88077;-72
2022/03/19 08:45:32;;;;;;;19.58;9.98;;;20.70;53.40;;;;;;4960521;28;87890;-72
2022/03/19 08:47:57;;;;;;;22.27;10.80;;;20.70;53.20;;;;;;4962945;28;87283;-72
2022/03/19 08:50:26;;;;;;;22.85;10.63;;;20.70;53.40;;;;;;4962020;28;88366;-72
2022/03/19 08:52:51;;;;;;;23.13;11.37;;;20.80;53.60;;;;;;4960690;28;88168;-72
2022/03/19 08:55:17;;;;;;;16.20;8.80;;;20.80;53.50;;;;;;4948812;28;87905;-72
2022/03/19 08:57:43;;;;;;;15.60;8.20;;;20.80;53.20;;;;;;4919718;28;88516;-72
2022/03/19 09:00:09;;;;;;;15.48;8.13;;;20.80;52.80;;;;;;4959337;28;88622;-72
2022/03/19 09:02:35;;;;;;;16.88;8.70;;;20.80;52.70;;;;;;4960797;28;89174;-72
2022/03/19 09:05:04;;;;;;;19.67;6.95;;;20.80;52.40;;;;;;4960320;28;87981;-72
2022/03/19 09:07:30;;;;;;;24.85;9.05;;;20.80;52.30;;;;;;4964975;28;88028;-72
2022/03/19 09:09:56;;;;;;;49.90;11.52;;;20.90;52.30;;;;;;4976961;28;91694;-72
2022/03/19 09:12:24;;;;;;;47.75;16.58;;;20.90;52.40;;;;;;4961333;28;90019;-71
2022/03/19 09:14:50;;;;;;;68.05;18.63;;;20.90;52.10;;;;;;4960763;28;88009;-76
2022/03/19 09:17:15;;;;;;;78.07;20.95;;;21.00;53.10;;;;;;4958051;28;87549;-70
2022/03/19 09:19:41;;;;;;;77.43;20.35;;;21.00;53.30;;;;;;4959656;28;91289;-71
2022/03/19 09:22:06;;;;;;;69.68;19.00;;;21.00;53.30;;;;;;4960032;28;88261;-70
2022/03/19 09:24:32;;;;;;;70.03;20.55;;;21.00;53.90;;;;;;4960114;28;86842;-71
2022/03/19 09:26:58;;;;;;;77.43;20.27;;;21.00;53.20;;;;;;4960933;28;88160;-75
2022/03/19 09:29:24;;;;;;;73.78;19.58;;;21.00;53.50;;;;;;4961508;28;88416;-71
2022/03/19 09:31:51;;;;;;;82.90;22.23;;;21.10;53.50;;;;;;4957677;28;88402;-71
2022/03/19 09:34:16;;;;;;;69.53;21.00;;;21.10;53.70;;;;;;4959820;28;86941;-71
2022/03/19 09:36:46;;;;;;;69.30;19.92;;;21.10;54.10;;;;;;4958517;28;88972;-70
2022/03/19 09:39:15;;;;;;;47.33;15.10;;;21.10;53.90;;;;;;4958780;28;87626;-70
2022/03/19 09:41:44;;;;;;;49.38;16.92;;;21.10;53.00;;;;;;4953846;28;88149;-71
2022/03/19 09:44:16;;;;;;;48.80;16.42;;;21.10;53.10;;;;;;4956693;28;87872;-71
2022/03/19 09:46:45;;;;;;;50.17;14.73;;;21.10;52.60;;;;;;4960926;28;89877;-71
2022/03/19 09:49:11;;;;;;;45.45;14.27;;;21.00;52.70;;;;;;4961445;28;88188;-71
2022/03/19 09:51:40;;;;;;;48.58;14.55;;;21.00;52.10;;;;;;4959181;28;87963;-71
2022/03/19 09:54:09;;;;;;;51.00;15.70;;;21.10;52.90;;;;;;4955325;28;87953;-71
2022/03/19 09:56:36;;;;;;;48.70;15.77;;;21.10;53.20;;;;;;4956832;28;88921;-71
2022/03/19 09:59:03;;;;;;;47.55;14.00;;;21.10;53.60;;;;;;4958229;28;87961;-71
2022/03/19 10:01:31;;;;;;;56.95;14.27;;;21.10;53.80;;;;;;4942840;28;91308;-71
2022/03/19 10:04:10;;;;;;;43.17;14.10;;;21.10;54.20;;;;;;4953036;28;87162;-72
2022/03/19 10:09:38;;;;;;;47.70;14.50;;;21.10;54.10;;;;;;4960625;28;88221;-71
2022/03/19 10:12:10;;;;;;;45.50;13.13;;;21.10;54.20;;;;;;4957873;28;92046;-70
2022/03/19 10:14:35;;;;;;;48.05;14.35;;;21.00;54.30;;;;;;4957450;28;88017;-71
2022/03/19 10:17:02;;;;;;;45.22;14.18;;;21.00;54.40;;;;;;4958555;28;87833;-70
2022/03/19 10:19:28;;;;;;;37.88;12.13;;;21.00;54.80;;;;;;4958696;28;88082;-70
2022/03/19 10:22:05;;;;;;;42.15;12.50;;;21.00;54.30;;;;;;4961691;28;87890;-71
2022/03/19 10:24:36;;;;;;;43.15;13.02;;;21.00;54.90;;;;;;4960107;28;87850;-71
2022/03/19 10:27:02;;;;;;;37.53;12.43;;;21.00;54.90;;;;;;4960072;28;86431;-70
2022/03/19 10:29:31;;;;;;;42.75;12.95;;;20.90;54.60;;;;;;4962292;28;88948;-71
2022/03/19 10:32:04;;;;;;;36.65;11.20;;;20.90;55.30;;;;;;4959589;28;87883;-71
2022/03/19 10:34:30;;;;;;;32.55;11.13;;;20.90;55.40;;;;;;4959024;28;88598;-71
2022/03/19 10:36:59;;;;;;;36.50;11.63;;;20.90;55.20;;;;;;4942796;28;90769;-71
2022/03/19 10:39:30;;;;;;;35.70;11.70;;;20.90;54.10;;;;;;4942915;28;90290;-72
2022/03/19 10:42:13;;;;;;;27.17;9.07;;;20.80;55.40;;;;;;4959561;28;87383;-69
2022/03/19 10:44:39;;;;;;;29.95;9.27;;;20.80;55.50;;;;;;4960588;28;87967;-70
2022/03/19 10:47:05;;;;;;;29.67;9.27;;;20.70;54.90;;;;;;4960232;28;87954;-70
2022/03/19 10:49:31;;;;;;;27.35;8.90;;;20.70;53.90;;;;;;4958294;28;87876;-70
2022/03/19 10:52:02;;;;;;;26.88;8.13;;;20.70;52.90;;;;;;4960050;28;87195;-69
2022/03/19 10:54:29;;;;;;;32.70;9.85;;;20.70;53.40;;;;;;4955976;28;87963;-69
2022/03/19 10:56:55;;;;;;;35.53;9.00;;;20.80;54.70;;;;;;4978942;28;90169;-70
2022/03/19 10:59:21;;;;;;;26.27;9.27;;;20.80;55.20;;;;;;4958345;28;88751;-70
2022/03/19 11:01:49;;;;;;;32.13;10.55;;;20.80;55.80;;;;;;4961333;28;89245;-69
2022/03/19 11:04:15;;;;;;;23.38;6.80;;;20.80;56.80;;;;;;4959757;28;87322;-70
2022/03/19 11:06:44;;;;;;;27.80;8.65;;;20.80;53.10;;;;;;4955007;28;87591;-71
2022/03/19 11:09:14;;;;;;;29.67;9.13;;;20.90;58.00;;;;;;4961450;28;91543;-71
2022/03/19 11:11:50;;;;;;;29.65;9.45;;;20.80;58.40;;;;;;4962840;28;87892;-71
2022/03/19 11:14:24;;;;;;;35.85;7.93;;;20.90;59.00;;;;;;4956782;28;87439;-71
2022/03/19 11:17:23;;;;;;;30.85;9.05;;;20.80;59.40;;;;;;4957456;28;89930;-71
2022/03/19 11:19:55;;;;;;;26.38;8.73;;;20.90;59.70;;;;;;4959536;28;88244;-71
2022/03/19 11:22:21;;;;;;;32.83;8.98;;;20.80;60.30;;;;;;4958393;28;88129;-72
2022/03/19 11:25:09;;;;;;;23.83;8.18;;;20.80;60.30;;;;;;4954310;28;88540;-73
2022/03/19 11:27:42;;;;;;;25.95;8.07;;;20.90;60.70;;;;;;4957853;28;86970;-72
2022/03/19 11:30:42;;;;;;;28.50;8.00;;;20.90;60.40;;;;;;4950097;28;88551;-71
2022/03/19 11:33:20;;;;;;;32.08;8.93;;;20.90;60.40;;;;;;4955414;28;90077;-69
2022/03/19 11:36:10;;;;;;;23.85;8.48;;;20.90;60.50;;;;;;4961440;28;87178;-69
2022/03/19 11:38:51;;;;;;;22.30;7.53;;;20.90;59.60;;;;;;4940691;28;87526;-69
2022/03/19 11:41:26;;;;;;;23.40;7.05;;;20.80;58.30;;;;;;4956234;28;88128;-69
2022/03/19 11:44:23;;;;;;;24.50;7.80;;;20.80;57.50;;;;;;4938672;28;89995;-70
2022/03/19 11:46:56;;;;;;;23.50;6.88;;;20.80;57.90;;;;;;4940645;28;88118;-71
2022/03/19 11:49:48;;;;;;;28.10;7.43;;;20.80;57.40;;;;;;4941624;28;88109;-72
2022/03/19 11:52:26;;;;;;;22.67;7.63;;;20.80;57.80;;;;;;4958432;28;89072;-70
2022/03/19 11:55:01;;;;;;;23.45;7.15;;;20.80;57.50;;;;;;4953597;28;89175;-71
2022/03/19 11:57:28;;;;;;;21.95;8.15;;;20.80;57.80;;;;;;4954521;28;87747;-69
2022/03/19 12:00:00;;;;;;;29.60;7.22;;;20.80;57.60;;;;;;4959116;28;87624;-70
2022/03/19 12:02:27;;;;;;;17.65;6.38;;;20.80;57.60;;;;;;4952365;28;88163;-70
2022/03/19 12:04:55;;;;;;;23.50;7.20;;;20.80;57.70;;;;;;4960491;28;87818;-70
2022/03/19 12:07:41;;;;;;;23.95;6.30;;;20.80;58.10;;;;;;4961962;28;87875;-70
2022/03/19 12:10:16;;;;;;;19.42;6.70;;;20.80;57.80;;;;;;4965177;28;87277;-70
2022/03/19 12:12:43;;;;;;;19.15;6.28;;;20.80;57.80;;;;;;4961674;28;88629;-70
2022/03/19 12:15:33;;;;;;;17.92;6.05;;;20.80;57.50;;;;;;4952610;28;87969;-70
2022/03/19 12:18:34;;;;;;;18.25;5.38;;;20.80;57.80;;;;;;4949710;28;88756;-70
2022/03/19 12:21:03;;;;;;;18.17;6.13;;;20.70;57.50;;;;;;4957026;28;87897;-70
2022/03/19 12:23:44;;;;;;;20.00;5.82;;;20.70;57.30;;;;;;4950471;28;88702;-70
2022/03/19 12:26:12;;;;;;;17.58;6.38;;;20.80;57.60;;;;;;4949246;28;87812;-71
2022/03/19 12:28:39;;;;;;;18.33;6.43;;;20.80;57.60;;;;;;4961435;28;88162;-71
2022/03/19 12:31:11;;;;;;;18.13;5.97;;;20.80;57.70;;;;;;4965423;28;87909;-71
2022/03/19 12:33:38;;;;;;;19.85;6.38;;;20.70;57.90;;;;;;4947648;28;91389;-71
2022/03/19 12:36:19;;;;;;;21.55;5.45;;;20.80;58.10;;;;;;4950434;28;87154;-70
2022/03/19 12:38:46;;;;;;;19.27;5.43;;;20.80;58.30;;;;;;4948916;28;87971;-71
2022/03/19 12:41:29;;;;;;;19.58;5.93;;;20.80;59.00;;;;;;4947832;28;87885;-70
2022/03/19 12:43:57;;;;;;;22.73;6.38;;;20.80;58.70;;;;;;4947923;28;88853;-70
2022/03/19 12:46:23;;;;;;;21.25;6.18;;;20.80;58.70;;;;;;4948692;28;88159;-70
2022/03/19 12:48:49;;;;;;;21.63;5.85;;;20.80;58.40;;;;;;4957980;28;87390;-70
2022/03/19 12:51:26;;;;;;;18.48;5.90;;;20.80;57.60;;;;;;4955222;28;90352;-70